Youngstown, OH

9:51 AM EST on December 28, 2014 (GMT -0500)
West Side | Change Station
CLOSE
Current Station
Personal Weather Station
Location: Youngstown, OH
Elevation: 1010 ft
Nearby Weather Stations

Elev 1010 ft 41.09 °N, 80.70 °W | Updated 1 second ago

Overcast
Overcast
36.9 °F
Feels Like 37 °F
N
0.0
Wind Variable Wind from ENE
Gusts 2.7 mph

Today
High -- | Low -- °F
--% Chance of Precip.
Yesterday
High -- | Low -- °F
Precip. -- in
7:47 AM 5:01 PM
Waxing Crescent, 48% visible
Pressure 30.06 in
Visibility 2.5 miles
Clouds Overcast 400 ft
Windchill 37 °F
Dew Point 25 °F
Humidity 61%
Rainfall 0.31 in
Snow Depth Not available.
UV 0 out of 12
Pollen .10 out of 12
Air Quality Not available.
Flu Activity Not available.
METAR KYNG 281351Z 29006KT 2 1/2SM BR OVC004 02/01 A3003 RMK AO2 SFC VIS 4 SLP178 T00170011

More Conditions Fewer Conditions

Pressure 30.06 in
Visibility 2.5 miles
Clouds Overcast 400 ft
Windchill 37 °F
Dew Point 25 °F
Humidity 61%
Rainfall 0.31 in
Snow Depth Not available.
UV 0 out of 12
Pollen .10 out of 12
Air Quality Not available.
Flu Activity Not available.
METAR KYNG 281351Z 29006KT 2 1/2SM BR OVC004 02/01 A3003 RMK AO2 SFC VIS 4 SLP178 T00170011

More Conditions Fewer Conditions

10-Day Weather Forecast

Almanac

Astronomy

Dec. 28, 2014 Rise Set
Actual Time
Civil Twilight
Nautical Twilight
Astronomical Twilight
Moon
Length of Visible Light
Length of Day
Tomorrow will be .
, % of the Moon is Illuminated

Today's Extremes

State Highs State Lows

Community

WunderPhotos

Upload Photos

1,781,274 photos uploaded!

WunderBlogs® & News

Nearby

Air Quality

  Air Quality AQ Index Pollutant
Not available.

Snow Depth

Station Depth Elevation

Earthquake Activity

City Distance Mag. Time & Date
Minimum magnitude displayed is 2.5.

Coastal Water Temperatures

Place Temperature

Nearby Weather Stations